Time;durP1;ratioP1;P1;durP2;ratioP2;P2;SDS_P1;SDS_P2;PMS_P1;PMS_P2;Temp;Humidity;BMP_temperature;BMP_pressure;BME280_temperature;BME280_humidity;BME280_pressure;Samples;Min_cycle;Max_cycle;Signal;HPM_P1;HPM_P2
2022/08/25 00:00:08;;;;;;;10.93;8.77;;;19.30;34.10;;;;;;5074029;28;20480;-66
2022/08/25 00:02:35;;;;;;;19.50;9.53;;;19.30;34.10;;;;;;5095153;28;20804;-67
2022/08/25 00:05:02;;;;;;;10.80;8.13;;;19.30;34.40;;;;;;5074761;28;20828;-65
2022/08/25 00:07:28;;;;;;;14.40;7.90;;;19.30;34.30;;;;;;5073696;28;20586;-65
2022/08/25 00:09:55;;;;;;;10.00;7.37;;;19.20;34.20;;;;;;5074769;28;20479;-65
2022/08/25 00:12:24;;;;;;;11.17;7.70;;;19.30;34.30;;;;;;5084732;28;20463;-65
2022/08/25 00:14:50;;;;;;;10.77;7.50;;;19.30;34.10;;;;;;5082477;28;20546;-65
2022/08/25 00:17:18;;;;;;;16.57;9.37;;;19.30;34.00;;;;;;5096737;28;20459;-65
2022/08/25 00:19:45;;;;;;;11.23;7.87;;;19.20;34.10;;;;;;5075222;28;20490;-65
2022/08/25 00:22:11;;;;;;;12.53;7.90;;;19.20;34.10;;;;;;5083183;28;20460;-65
2022/08/25 00:24:38;;;;;;;10.83;7.73;;;19.20;34.20;;;;;;5076993;28;20467;-64
2022/08/25 00:27:06;;;;;;;10.80;8.43;;;19.10;34.90;;;;;;5071060;28;20959;-65
2022/08/25 00:29:36;;;;;;;10.13;7.00;;;19.10;34.80;;;;;;5082840;28;20489;-65
2022/08/25 00:32:04;;;;;;;11.43;7.70;;;19.10;34.70;;;;;;5086914;28;20469;-65
2022/08/25 00:34:33;;;;;;;12.10;7.60;;;19.10;34.90;;;;;;5077507;28;20452;-64
2022/08/25 00:37:01;;;;;;;11.87;8.27;;;19.10;34.70;;;;;;5070353;28;20485;-65
2022/08/25 00:39:28;;;;;;;11.30;8.03;;;19.00;34.90;;;;;;5078706;28;20484;-65
2022/08/25 00:41:57;;;;;;;12.80;8.23;;;19.00;35.10;;;;;;5068155;28;20466;-64
2022/08/25 00:44:26;;;;;;;13.87;9.13;;;19.00;35.30;;;;;;5072796;28;20460;-65
2022/08/25 00:46:56;;;;;;;12.33;8.83;;;19.00;35.30;;;;;;5072678;28;20468;-65
2022/08/25 00:49:27;;;;;;;11.77;9.20;;;18.90;35.50;;;;;;5073610;28;20600;-65
2022/08/25 00:51:59;;;;;;;11.70;8.50;;;18.90;35.40;;;;;;5081082;28;20456;-64
2022/08/25 00:54:31;;;;;;;14.10;8.40;;;18.90;35.70;;;;;;5076151;28;20467;-67
2022/08/25 00:56:59;;;;;;;11.10;9.13;;;18.80;35.60;;;;;;5077642;28;20463;-65
2022/08/25 00:59:27;;;;;;;18.83;9.93;;;18.80;35.80;;;;;;5073760;28;20484;-65
2022/08/25 01:01:56;;;;;;;14.17;10.90;;;18.80;36.00;;;;;;5080337;28;20495;-65
2022/08/25 01:04:23;;;;;;;14.57;9.93;;;18.70;36.10;;;;;;5083815;28;20457;-65
2022/08/25 01:06:50;;;;;;;16.70;10.03;;;18.70;36.10;;;;;;5079769;28;20464;-64
2022/08/25 01:09:18;;;;;;;15.10;9.87;;;18.80;36.30;;;;;;5081191;28;20558;-64
2022/08/25 01:11:47;;;;;;;16.77;10.60;;;18.70;36.40;;;;;;5084704;28;20480;-65
2022/08/25 01:14:16;;;;;;;14.80;10.57;;;18.70;37.20;;;;;;5089499;22;20469;-82
2022/08/25 01:16:43;;;;;;;15.67;10.63;;;18.70;36.80;;;;;;5065179;28;20961;-81
2022/08/25 01:19:14;;;;;;;18.60;10.17;;;18.60;36.40;;;;;;5065706;28;20548;-81
2022/08/25 01:21:44;;;;;;;12.97;9.57;;;18.60;36.70;;;;;;5057803;28;20471;-80
2022/08/25 01:24:20;;;;;;;15.93;11.33;;;18.60;36.60;;;;;;5062785;28;20485;-79
2022/08/25 01:26:47;;;;;;;17.37;11.70;;;18.60;36.60;;;;;;5057148;28;20460;-80
2022/08/25 01:29:24;;;;;;;15.63;11.30;;;18.60;36.70;;;;;;5055662;28;20489;-79
2022/08/25 01:31:53;;;;;;;16.17;11.37;;;18.60;36.60;;;;;;5078784;28;20465;-80
2022/08/25 01:34:20;;;;;;;14.10;11.03;;;18.60;36.50;;;;;;5054610;28;21001;-80
2022/08/25 01:36:48;;;;;;;13.83;10.90;;;18.60;36.70;;;;;;5061657;28;21009;-80
2022/08/25 01:39:15;;;;;;;12.97;9.90;;;18.50;36.90;;;;;;5053460;28;20457;-80
2022/08/25 01:41:54;;;;;;;16.10;11.20;;;18.50;36.90;;;;;;5065099;28;20452;-79
2022/08/25 01:44:21;;;;;;;14.33;10.20;;;18.50;37.10;;;;;;5068380;28;20482;-80
2022/08/25 01:46:48;;;;;;;15.40;10.80;;;18.50;36.90;;;;;;5071680;28;21046;-80
2022/08/25 01:49:14;;;;;;;15.20;10.80;;;18.50;37.00;;;;;;5079273;28;20472;-79
2022/08/25 01:51:48;;;;;;;16.37;11.80;;;18.40;37.00;;;;;;5064047;28;20817;-80
2022/08/25 01:54:16;;;;;;;15.77;10.10;;;18.40;37.40;;;;;;5066619;28;21023;-81
2022/08/25 01:56:43;;;;;;;18.00;11.67;;;18.40;37.10;;;;;;5062268;28;20949;-81
2022/08/25 01:59:10;;;;;;;16.93;12.60;;;18.40;37.40;;;;;;5066601;28;20453;-80
2022/08/25 02:01:37;;;;;;;19.40;13.40;;;18.30;37.50;;;;;;5060291;28;22846;-82
2022/08/25 02:04:05;;;;;;;15.30;11.20;;;18.30;37.70;;;;;;5067741;28;20472;-81
2022/08/25 02:06:34;;;;;;;19.10;12.77;;;18.30;37.90;;;;;;5075309;28;20548;-81
2022/08/25 02:09:06;;;;;;;19.00;12.90;;;18.30;38.00;;;;;;5068709;28;20476;-80
2022/08/25 02:11:36;;;;;;;23.53;14.40;;;18.30;38.00;;;;;;5067363;28;20467;-79
2022/08/25 02:14:03;;;;;;;18.83;13.40;;;18.30;37.90;;;;;;5087796;28;20482;-80
2022/08/25 02:16:33;;;;;;;16.50;12.97;;;18.30;37.80;;;;;;5122296;27;20455;-81
2022/08/25 02:19:00;;;;;;;16.50;12.80;;;18.30;37.60;;;;;;5111675;27;20453;-81
2022/08/25 02:21:27;;;;;;;19.60;12.50;;;18.30;37.50;;;;;;5109698;27;20470;-80
2022/08/25 02:23:55;;;;;;;16.33;11.93;;;18.30;37.40;;;;;;5110100;28;20479;-80
2022/08/25 02:26:22;;;;;;;17.33;12.10;;;18.20;37.50;;;;;;5108666;28;20462;-80
2022/08/25 02:28:52;;;;;;;15.90;12.13;;;18.10;37.70;;;;;;5108706;27;20467;-80
2022/08/25 02:31:21;;;;;;;18.37;11.30;;;18.10;38.00;;;;;;5101525;28;20570;-80
2022/08/25 02:33:48;;;;;;;16.70;12.63;;;18.10;37.80;;;;;;5107732;27;20511;-79
2022/08/25 02:36:16;;;;;;;16.20;12.30;;;18.10;37.80;;;;;;5115692;27;20459;-81
2022/08/25 02:38:42;;;;;;;16.23;12.83;;;18.10;37.90;;;;;;5108470;28;20851;-81
2022/08/25 02:41:12;;;;;;;16.97;11.43;;;18.00;38.00;;;;;;5111123;28;20455;-80
2022/08/25 02:43:40;;;;;;;17.13;12.70;;;18.00;37.90;;;;;;5105413;28;20487;-81
2022/08/25 02:46:09;;;;;;;17.17;12.07;;;18.00;37.90;;;;;;5102565;28;20486;-81
2022/08/25 02:48:36;;;;;;;15.20;12.00;;;18.00;37.90;;;;;;5105216;27;20974;-80
2022/08/25 02:51:04;;;;;;;19.93;14.17;;;18.00;38.00;;;;;;5112153;27;20459;-80
2022/08/25 02:53:31;;;;;;;21.80;14.90;;;18.00;38.20;;;;;;5104424;28;20483;-80
2022/08/25 02:55:58;;;;;;;21.63;15.73;;;18.00;38.40;;;;;;5107355;28;20456;-80
2022/08/25 02:58:25;;;;;;;19.30;14.27;;;18.00;38.80;;;;;;5103133;27;20545;-80
2022/08/25 03:00:53;;;;;;;19.40;15.10;;;18.00;38.70;;;;;;5111669;27;20470;-80
2022/08/25 03:03:21;;;;;;;21.80;14.80;;;18.00;38.60;;;;;;5098106;28;20479;-80
2022/08/25 03:05:48;;;;;;;19.57;15.93;;;18.00;38.90;;;;;;5105789;27;20501;-80
2022/08/25 03:08:15;;;;;;;22.40;15.60;;;17.90;38.90;;;;;;5116593;27;20474;-80
2022/08/25 03:10:42;;;;;;;20.30;15.40;;;17.90;38.90;;;;;;5112594;27;20479;-80
2022/08/25 03:13:09;;;;;;;21.97;15.43;;;17.90;38.70;;;;;;5097768;28;20495;-80
2022/08/25 03:15:36;;;;;;;21.80;14.60;;;17.90;38.60;;;;;;5098324;27;20458;-80
2022/08/25 03:18:04;;;;;;;18.23;14.87;;;17.90;38.50;;;;;;5105973;27;20460;-81
2022/08/25 03:20:34;;;;;;;19.30;15.10;;;17.90;38.60;;;;;;5110285;27;20458;-81
2022/08/25 03:23:01;;;;;;;18.73;13.87;;;17.90;39.10;;;;;;5102959;28;20475;-82
2022/08/25 03:28:13;;;;;;;20.80;13.87;;;17.80;38.80;;;;;;5101627;27;20450;-81
2022/08/25 03:30:40;;;;;;;18.50;14.40;;;17.80;38.80;;;;;;5104560;27;20523;-80
2022/08/25 03:33:07;;;;;;;17.50;14.23;;;17.80;38.90;;;;;;5108830;27;20478;-81
2022/08/25 03:35:36;;;;;;;21.43;16.20;;;17.80;38.80;;;;;;5106067;28;20448;-82
2022/08/25 03:38:03;;;;;;;21.00;15.37;;;17.70;38.90;;;;;;5101775;28;20853;-81
2022/08/25 03:40:31;;;;;;;18.03;13.17;;;17.70;38.80;;;;;;5103947;28;20455;-82
2022/08/25 03:42:58;;;;;;;23.30;16.20;;;17.70;38.90;;;;;;5111365;27;20487;-82
2022/08/25 03:45:25;;;;;;;26.00;17.20;;;17.70;39.00;;;;;;5114297;27;20969;-81
2022/08/25 03:47:52;;;;;;;22.00;15.67;;;17.70;39.00;;;;;;5108094;27;20452;-80
2022/08/25 03:50:21;;;;;;;21.70;16.60;;;17.70;39.20;;;;;;5104466;28;20487;-79
2022/08/25 03:52:54;;;;;;;19.57;16.30;;;17.70;39.10;;;;;;5097316;27;20460;-79
2022/08/25 03:55:22;;;;;;;23.73;17.17;;;17.60;39.40;;;;;;5095388;27;20483;-80
2022/08/25 03:57:49;;;;;;;18.53;14.50;;;17.60;39.30;;;;;;5105249;27;20512;-81
2022/08/25 04:00:16;;;;;;;23.70;16.47;;;17.50;39.40;;;;;;5108013;27;21203;-80
2022/08/25 04:02:43;;;;;;;22.07;17.00;;;17.60;39.90;;;;;;5104554;27;20569;-79
2022/08/25 04:05:11;;;;;;;20.40;16.60;;;17.50;39.50;;;;;;5104639;27;20468;-80
2022/08/25 04:07:38;;;;;;;24.57;17.10;;;17.50;39.90;;;;;;5096646;27;20956;-84
2022/08/25 04:10:08;;;;;;;20.43;16.27;;;17.50;39.80;;;;;;5101385;27;20594;-83
2022/08/25 04:12:35;;;;;;;21.47;15.40;;;17.50;39.90;;;;;;5100456;27;20465;-83
2022/08/25 04:15:03;;;;;;;22.43;17.27;;;17.50;40.00;;;;;;5106248;28;20463;-83
2022/08/25 04:17:29;;;;;;;21.27;16.63;;;17.50;39.90;;;;;;5105948;28;20455;-84
2022/08/25 04:19:57;;;;;;;21.83;17.07;;;17.50;39.90;;;;;;5097407;28;20444;-84
2022/08/25 04:22:23;;;;;;;21.30;16.07;;;17.50;39.80;;;;;;5101563;28;20831;-83
2022/08/25 04:24:50;;;;;;;22.30;17.40;;;17.50;40.00;;;;;;5098535;28;20484;-83
2022/08/25 04:27:18;;;;;;;24.40;16.97;;;17.50;39.80;;;;;;5101206;28;20481;-83
2022/08/25 04:29:45;;;;;;;24.10;17.60;;;17.50;39.70;;;;;;5098881;28;20467;-83
2022/08/25 04:32:12;;;;;;;21.87;15.90;;;17.50;40.10;;;;;;5103139;28;20479;-78
2022/08/25 04:34:40;;;;;;;22.93;16.37;;;17.50;40.10;;;;;;5099976;28;20570;-76
2022/08/25 04:37:07;;;;;;;25.30;18.70;;;17.50;40.10;;;;;;5094782;28;20454;-77
2022/08/25 04:39:34;;;;;;;24.13;18.70;;;17.50;40.00;;;;;;5095808;28;20448;-79
2022/08/25 04:42:02;;;;;;;25.33;18.33;;;17.60;40.10;;;;;;5103898;28;20463;-75
2022/08/25 04:44:31;;;;;;;26.17;18.80;;;17.60;40.10;;;;;;5097210;28;20483;-75
2022/08/25 04:46:58;;;;;;;20.17;16.63;;;17.60;40.50;;;;;;5104143;28;21027;-75
2022/08/25 04:49:25;;;;;;;25.20;18.60;;;17.60;40.50;;;;;;5102964;28;20479;-61
2022/08/25 04:51:52;;;;;;;20.90;16.57;;;17.60;41.10;;;;;;5097671;28;21228;-62
2022/08/25 04:54:20;;;;;;;22.77;17.80;;;17.60;40.70;;;;;;5101189;28;21047;-73
2022/08/25 04:56:48;;;;;;;23.20;18.10;;;17.70;41.50;;;;;;5098686;28;20463;-75
2022/08/25 04:59:17;;;;;;;25.20;19.53;;;17.80;41.30;;;;;;5101335;28;20455;-76
2022/08/25 05:01:46;;;;;;;24.90;18.93;;;17.80;41.10;;;;;;5103903;28;20478;-76
2022/08/25 05:04:15;;;;;;;25.33;18.70;;;17.80;41.00;;;;;;5097011;28;20549;-68
2022/08/25 05:06:43;;;;;;;25.23;19.83;;;18.00;41.20;;;;;;5101246;28;20463;-66
2022/08/25 05:09:10;;;;;;;24.03;18.17;;;18.10;41.40;;;;;;5102403;28;20455;-66
2022/08/25 05:11:37;;;;;;;21.13;17.33;;;18.30;41.70;;;;;;5101282;28;20572;-66
2022/08/25 05:14:04;;;;;;;23.63;17.67;;;18.70;41.30;;;;;;5102100;28;20495;-67
2022/08/25 05:16:31;;;;;;;21.40;16.17;;;19.10;40.10;;;;;;5099394;28;20455;-66
2022/08/25 05:18:59;;;;;;;22.33;16.63;;;19.40;39.40;;;;;;5099668;28;20457;-66
2022/08/25 05:21:27;;;;;;;23.13;16.00;;;19.70;39.00;;;;;;5102194;28;20958;-67
2022/08/25 05:23:56;;;;;;;18.83;14.70;;;20.00;37.60;;;;;;5101526;28;20478;-65
2022/08/25 05:26:25;;;;;;;19.30;14.00;;;20.20;36.70;;;;;;5104228;28;20463;-66
2022/08/25 05:28:53;;;;;;;17.00;13.40;;;20.50;35.50;;;;;;5100637;28;20541;-66
2022/08/25 05:31:21;;;;;;;17.40;13.80;;;20.70;34.20;;;;;;5102079;28;20851;-64
2022/08/25 05:33:48;;;;;;;19.10;14.80;;;21.10;32.70;;;;;;5099557;28;20497;-65
2022/08/25 05:36:18;;;;;;;17.27;14.80;;;21.50;31.30;;;;;;5101854;28;20503;-65
2022/08/25 05:38:45;;;;;;;17.97;14.93;;;21.80;30.00;;;;;;5099065;28;20463;-65
2022/08/25 05:41:14;;;;;;;16.90;13.80;;;22.10;28.70;;;;;;5100711;28;20455;-63
2022/08/25 05:43:43;;;;;;;16.93;14.10;;;22.50;27.40;;;;;;5104334;28;20524;-64
2022/08/25 05:46:10;;;;;;;15.17;13.53;;;23.20;26.00;;;;;;5104711;28;20447;-67
2022/08/25 05:48:37;;;;;;;17.50;15.47;;;24.10;23.60;;;;;;5103347;27;20991;-77
2022/08/25 05:51:07;;;;;;;15.97;13.20;;;25.20;20.00;;;;;;5102371;28;21130;-80
2022/08/25 05:53:37;;;;;;;15.60;13.90;;;26.20;17.90;;;;;;5025257;22;20955;-70
2022/08/25 05:56:04;;;;;;;15.20;12.30;;;27.30;15.70;;;;;;5005450;28;20470;-70
2022/08/25 05:58:32;;;;;;;15.97;13.73;;;28.40;13.90;;;;;;5011279;28;21028;-69
2022/08/25 06:02:39;;;;;;;14.40;12.90;;;29.40;11.40;;;;;;5036006;27;20491;-70
2022/08/25 06:03:47;;;;;;;13.93;12.50;;;30.50;9.50;;;;;;5004794;28;20470;-70
2022/08/25 06:06:14;;;;;;;14.10;12.60;;;31.60;7.40;;;;;;5002147;28;20768;-70
2022/08/25 06:08:43;;;;;;;15.40;12.33;;;32.60;5.90;;;;;;5010570;28;20962;-70
2022/08/25 06:11:11;;;;;;;14.30;12.23;;;33.60;4.50;;;;;;5005802;28;21045;-70
2022/08/25 06:13:38;;;;;;;13.30;11.90;;;34.50;2.80;;;;;;5002582;28;20599;-70
2022/08/25 06:16:05;;;;;;;16.27;13.30;;;35.30;1.70;;;;;;4999904;28;20461;-70
2022/08/25 06:18:32;;;;;;;12.13;10.90;;;35.80;1.00;;;;;;5003355;28;20466;-70
2022/08/25 06:20:59;;;;;;;13.23;11.83;;;36.70;1.00;;;;;;5005236;28;20812;-70
2022/08/25 06:23:26;;;;;;;12.50;11.20;;;37.70;1.00;;;;;;5003656;28;20475;-70
2022/08/25 06:25:55;;;;;;;13.07;11.77;;;38.30;1.00;;;;;;5009788;28;20520;-70
2022/08/25 06:28:22;;;;;;;14.80;13.20;;;38.80;1.00;;;;;;5003927;28;20452;-70
2022/08/25 06:30:49;;;;;;;14.83;12.20;;;39.10;1.00;;;;;;5007672;28;20980;-70
2022/08/25 06:33:16;;;;;;;12.90;11.27;;;39.80;1.00;;;;;;4998634;28;20488;-70
2022/08/25 06:35:44;;;;;;;14.40;12.90;;;40.50;1.00;;;;;;5005488;28;20460;-70
2022/08/25 06:38:12;;;;;;;12.87;11.57;;;40.90;1.00;;;;;;5000911;28;20471;-70
2022/08/25 06:40:39;;;;;;;10.73;9.63;;;41.30;1.00;;;;;;5008118;28;20533;-70
2022/08/25 06:43:07;;;;;;;10.60;9.50;;;41.90;1.00;;;;;;5009973;28;20478;-70
2022/08/25 06:45:35;;;;;;;11.30;9.87;;;42.30;1.00;;;;;;5013168;28;21011;-70
2022/08/25 06:48:02;;;;;;;11.63;10.53;;;42.80;1.00;;;;;;5001238;28;20596;-70
2022/08/25 06:50:29;;;;;;;10.87;9.80;;;43.40;1.00;;;;;;5010821;28;20480;-70
2022/08/25 06:52:56;;;;;;;12.60;11.40;;;44.10;1.00;;;;;;5029954;28;20482;-70
2022/08/25 06:55:23;;;;;;;12.73;10.73;;;44.60;1.00;;;;;;5001123;28;20966;-70
2022/08/25 06:57:53;;;;;;;10.30;9.30;;;44.80;1.00;;;;;;5016170;28;20520;-71
2022/08/25 07:00:22;;;;;;;11.10;9.70;;;45.00;1.00;;;;;;5001597;27;20590;-71
2022/08/25 07:02:49;;;;;;;12.87;10.60;;;45.50;1.00;;;;;;5013361;28;20464;-70
2022/08/25 07:05:16;;;;;;;10.63;9.53;;;45.90;1.00;;;;;;4992484;28;20484;-71
2022/08/25 07:07:45;;;;;;;9.87;8.87;;;46.10;1.00;;;;;;4995947;28;20551;-71
2022/08/25 07:10:13;;;;;;;8.60;7.73;;;46.30;1.00;;;;;;4998184;28;20481;-71
2022/08/25 07:12:40;;;;;;;10.10;9.10;;;46.70;1.00;;;;;;5005349;28;20694;-71
2022/08/25 07:15:07;;;;;;;10.50;9.47;;;47.30;1.00;;;;;;4998938;28;20941;-71
2022/08/25 07:17:36;;;;;;;9.73;8.80;;;47.60;1.00;;;;;;5047502;28;20456;-71
2022/08/25 07:20:03;;;;;;;10.23;8.90;;;48.00;1.00;;;;;;5002688;28;20471;-71
2022/08/25 07:22:33;;;;;;;10.03;8.93;;;48.60;1.00;;;;;;5007048;28;20547;-70
2022/08/25 07:25:00;;;;;;;9.13;8.10;;;49.10;1.00;;;;;;4998813;28;20480;-71
2022/08/25 07:27:27;;;;;;;9.60;8.40;;;49.40;1.00;;;;;;5023236;28;20495;-72
2022/08/25 07:29:54;;;;;;;9.53;8.63;;;49.80;1.00;;;;;;5005190;28;20976;-71
2022/08/25 07:32:21;;;;;;;8.53;7.73;;;49.50;1.00;;;;;;5025680;27;20487;-71
2022/08/25 07:37:37;;;;;;;8.53;7.73;;;49.20;1.00;;;;;;5061785;27;20482;-70
2022/08/25 07:40:07;;;;;;;8.87;7.90;;;49.40;1.00;;;;;;5015919;28;20555;-70
2022/08/25 07:42:34;;;;;;;9.23;8.33;;;49.50;1.00;;;;;;5055777;27;20463;-70
2022/08/25 07:45:02;;;;;;;8.33;7.53;;;49.60;1.00;;;;;;5035325;27;20481;-70
2022/08/25 07:47:30;;;;;;;8.50;7.70;;;49.80;1.00;;;;;;5020146;28;20455;-70
2022/08/25 07:49:59;;;;;;;8.63;7.73;;;49.30;1.00;;;;;;5024918;28;20455;-70
2022/08/25 07:52:26;;;;;;;9.80;7.03;;;49.00;1.00;;;;;;5023964;27;20487;-70
2022/08/25 07:54:54;;;;;;;9.57;6.53;;;48.90;1.00;;;;;;5030951;27;20562;-70
2022/08/25 07:57:25;;;;;;;7.67;6.97;;;48.80;1.00;;;;;;5017090;28;20468;-71
2022/08/25 07:59:52;;;;;;;7.93;6.70;;;49.20;1.00;;;;;;5017698;28;20474;-71
2022/08/25 08:02:19;;;;;;;8.07;7.20;;;50.10;1.00;;;;;;5022846;27;20547;-70
2022/08/25 08:04:48;;;;;;;7.77;6.97;;;50.30;1.00;;;;;;5039579;27;20494;-71
2022/08/25 08:07:18;;;;;;;8.17;7.37;;;50.70;1.00;;;;;;5015137;28;20499;-71
2022/08/25 08:09:46;;;;;;;9.10;7.20;;;51.20;1.00;;;;;;5016094;28;20951;-71
2022/08/25 08:12:13;;;;;;;7.73;6.93;;;51.60;1.00;;;;;;5033691;27;20478;-71
2022/08/25 08:14:40;;;;;;;6.67;5.70;;;51.70;1.00;;;;;;5018182;28;20486;-71
2022/08/25 08:17:08;;;;;;;7.53;6.83;;;51.70;1.00;;;;;;5040536;27;20536;-71
2022/08/25 08:19:35;;;;;;;7.20;6.50;;;51.50;1.00;;;;;;5042533;27;20471;-71
2022/08/25 08:22:04;;;;;;;7.83;7.03;;;51.20;1.00;;;;;;5049129;27;20486;-71
2022/08/25 08:24:37;;;;;;;6.97;6.27;;;50.60;1.00;;;;;;5028698;27;21018;-71
2022/08/25 08:27:05;;;;;;;7.27;6.57;;;50.30;1.00;;;;;;5042485;27;20459;-70
2022/08/25 08:29:32;;;;;;;6.53;5.93;;;49.90;1.00;;;;;;5021189;28;20512;-71
2022/08/25 08:31:59;;;;;;;8.60;7.70;;;49.60;1.00;;;;;;5017371;27;21017;-70
2022/08/25 08:34:26;;;;;;;6.70;6.00;;;49.80;1.00;;;;;;5021918;28;20558;-70
2022/08/25 08:36:53;;;;;;;6.40;5.63;;;50.20;1.00;;;;;;5027946;28;20962;-69
2022/08/25 08:39:21;;;;;;;7.03;6.10;;;50.80;1.00;;;;;;5015902;28;20502;-70
2022/08/25 08:42:18;;;;;;;9.63;5.93;;;51.60;1.00;;;;;;5017526;28;20794;-70
2022/08/25 08:45:04;;;;;;;7.77;6.37;;;52.30;1.00;;;;;;5020241;28;20481;-70
2022/08/25 08:47:41;;;;;;;8.73;6.40;;;52.70;1.00;;;;;;5029986;28;20520;-70
2022/08/25 08:50:22;;;;;;;7.70;6.20;;;52.60;1.00;;;;;;5019172;28;20845;-70
2022/08/25 08:52:54;;;;;;;7.80;6.30;;;52.20;1.00;;;;;;5017165;28;20834;-70
2022/08/25 08:55:28;;;;;;;6.93;6.23;;;51.90;1.00;;;;;;5022473;28;20514;-70
2022/08/25 08:57:58;;;;;;;7.47;5.50;;;51.70;1.00;;;;;;5019390;28;20508;-70
2022/08/25 09:00:25;;;;;;;7.53;6.57;;;51.70;1.00;;;;;;5015248;28;20462;-70
2022/08/25 09:02:57;;;;;;;6.83;6.20;;;51.70;1.00;;;;;;5014093;28;20462;-70
2022/08/25 09:05:28;;;;;;;5.20;4.70;;;51.30;1.00;;;;;;5020267;28;20550;-70
2022/08/25 09:07:58;;;;;;;6.53;4.83;;;51.40;1.00;;;;;;5019788;28;20550;-70
2022/08/25 09:10:34;;;;;;;5.50;4.93;;;51.40;1.00;;;;;;5018046;28;20456;-69
2022/08/25 09:13:11;;;;;;;6.53;5.60;;;51.30;1.00;;;;;;5022442;28;20458;-69
2022/08/25 09:18:39;;;;;;;7.00;5.40;;;51.50;1.00;;;;;;5021538;28;20487;-69
2022/08/25 09:21:16;;;;;;;5.60;4.57;;;52.40;1.00;;;;;;5026507;27;20455;-69
2022/08/25 09:24:04;;;;;;;7.93;4.30;;;52.50;1.00;;;;;;5035082;27;20482;-69
2022/08/25 09:26:36;;;;;;;5.20;4.30;;;52.50;1.00;;;;;;5025133;28;20815;-69
2022/08/25 09:29:09;;;;;;;5.00;4.50;;;52.80;1.00;;;;;;5030597;28;20458;-69
2022/08/25 09:31:38;;;;;;;5.93;4.40;;;53.00;1.00;;;;;;5022614;27;20481;-69
2022/08/25 09:34:07;;;;;;;6.57;4.83;;;51.70;1.00;;;;;;5020915;28;20482;-70
2022/08/25 09:36:34;;;;;;;5.53;4.90;;;52.10;1.00;;;;;;5030596;27;20646;-69
2022/08/25 09:39:02;;;;;;;6.07;4.53;;;52.50;1.00;;;;;;5017818;28;20537;-69
2022/08/25 09:41:41;;;;;;;5.97;5.00;;;52.50;1.00;;;;;;5025679;28;20602;-70
2022/08/25 09:44:18;;;;;;;7.70;4.87;;;52.70;1.00;;;;;;5040803;27;20513;-69
2022/08/25 09:47:00;;;;;;;5.93;4.37;;;52.70;1.00;;;;;;5019976;27;20463;-69
2022/08/25 09:49:39;;;;;;;6.40;4.10;;;52.20;1.00;;;;;;5033646;27;20494;-69
2022/08/25 09:52:39;;;;;;;7.97;4.07;;;52.50;1.00;;;;;;5031766;27;20486;-70
2022/08/25 09:55:30;;;;;;;5.73;3.80;;;53.00;1.00;;;;;;5018920;28;20503;-69
2022/08/25 09:57:58;;;;;;;6.40;4.90;;;53.30;1.00;;;;;;5030269;27;20465;-70
2022/08/25 10:00:32;;;;;;;5.37;4.60;;;52.90;1.00;;;;;;5021616;27;20994;-70
2022/08/25 10:03:09;;;;;;;7.30;5.00;;;52.50;1.00;;;;;;5024156;28;20459;-69
2022/08/25 10:05:57;;;;;;;6.37;4.80;;;52.60;1.00;;;;;;5033583;27;20485;-69
2022/08/25 10:08:30;;;;;;;6.27;4.37;;;52.30;1.00;;;;;;5024092;28;20490;-69
2022/08/25 10:10:59;;;;;;;5.50;3.70;;;52.00;1.00;;;;;;5081231;27;20446;-69
2022/08/25 10:13:35;;;;;;;5.00;4.20;;;52.50;1.00;;;;;;5033752;27;20555;-69
2022/08/25 10:16:20;;;;;;;5.80;4.37;;;52.50;1.00;;;;;;5036997;27;20473;-69
2022/08/25 10:19:01;;;;;;;6.57;4.70;;;52.00;1.00;;;;;;5051444;27;20446;-70
2022/08/25 10:21:28;;;;;;;5.50;4.20;;;51.80;1.00;;;;;;5036824;27;20451;-71
2022/08/25 10:23:56;;;;;;;6.07;4.63;;;51.80;1.00;;;;;;5021558;27;21008;-71
2022/08/25 10:26:32;;;;;;;6.50;4.77;;;51.40;1.00;;;;;;5058633;27;20732;-71
2022/08/25 10:29:21;;;;;;;5.70;4.57;;;50.90;1.00;;;;;;5039994;27;20612;-71
2022/08/25 10:31:56;;;;;;;4.70;4.20;;;50.70;1.00;;;;;;5017590;27;20471;-70
2022/08/25 10:34:40;;;;;;;6.10;4.80;;;50.70;1.00;;;;;;5036483;27;20484;-71
2022/08/25 10:37:17;;;;;;;5.50;4.60;;;49.10;1.00;;;;;;5053223;27;20458;-71
2022/08/25 10:39:46;;;;;;;6.63;4.33;;;48.20;1.00;;;;;;5061061;27;21021;-70
2022/08/25 10:42:30;;;;;;;6.77;4.77;;;48.70;1.00;;;;;;5023903;28;20567;-71
2022/08/25 10:48:39;;;;;;;5.37;4.50;;;48.90;1.00;;;;;;5028271;27;20504;-70
2022/08/25 10:51:27;;;;;;;6.37;4.53;;;48.10;1.00;;;;;;5021829;28;20455;-71
2022/08/25 10:54:01;;;;;;;8.57;5.30;;;46.10;1.00;;;;;;5021504;28;20483;-71
2022/08/25 10:56:34;;;;;;;5.70;4.70;;;44.00;1.00;;;;;;5031614;27;20451;-70
2022/08/25 10:59:30;;;;;;;5.60;4.73;;;42.10;1.00;;;;;;5047995;27;20502;-70
2022/08/25 11:02:22;;;;;;;5.60;4.30;;;40.60;1.00;;;;;;5035437;27;20869;-70
2022/08/25 11:04:55;;;;;;;7.30;4.23;;;39.20;1.00;;;;;;5025010;28;20505;-70
2022/08/25 11:07:27;;;;;;;7.70;4.13;;;37.80;1.00;;;;;;5023339;28;20491;-70
2022/08/25 11:10:00;;;;;;;8.10;5.97;;;36.60;1.00;;;;;;5021910;28;20467;-69
2022/08/25 11:12:33;;;;;;;7.00;5.00;;;35.70;1.00;;;;;;5036097;27;20482;-70
2022/08/25 11:15:03;;;;;;;7.50;4.80;;;34.90;1.00;;;;;;5034984;27;20498;-70
2022/08/25 11:17:40;;;;;;;8.00;5.73;;;34.30;1.00;;;;;;5024744;27;20451;-70
2022/08/25 11:20:16;;;;;;;6.73;4.63;;;33.80;1.00;;;;;;5023499;28;21004;-70
2022/08/25 11:22:47;;;;;;;6.87;4.77;;;33.30;1.50;;;;;;5024297;27;20511;-71
2022/08/25 11:25:19;;;;;;;7.40;5.50;;;33.00;3.10;;;;;;5021052;28;20513;-70
2022/08/25 11:27:55;;;;;;;6.17;4.77;;;32.70;1.80;;;;;;5022274;28;20479;-70
2022/08/25 11:30:22;;;;;;;7.47;5.40;;;32.30;2.80;;;;;;5051479;27;20542;-70
2022/08/25 11:32:51;;;;;;;7.03;5.17;;;32.00;3.20;;;;;;5019155;28;21267;-70
2022/08/25 11:35:28;;;;;;;6.47;4.63;;;31.70;3.10;;;;;;5024745;27;20482;-70
2022/08/25 11:38:11;;;;;;;7.17;5.07;;;31.40;4.00;;;;;;5024030;28;20458;-70
2022/08/25 11:40:57;;;;;;;9.77;4.67;;;31.10;4.40;;;;;;5030757;27;20455;-70
2022/08/25 11:43:39;;;;;;;5.73;4.53;;;31.00;5.80;;;;;;5016954;28;21005;-70
2022/08/25 11:46:20;;;;;;;7.37;4.63;;;30.90;4.60;;;;;;5019915;28;20470;-70
2022/08/25 11:48:58;;;;;;;6.57;4.27;;;30.80;4.90;;;;;;5018664;28;20511;-70
2022/08/25 11:51:32;;;;;;;7.30;4.37;;;30.50;5.40;;;;;;5016999;28;20485;-70
2022/08/25 11:54:18;;;;;;;6.87;5.03;;;30.40;6.00;;;;;;5017632;28;20478;-69
2022/08/25 11:56:53;;;;;;;8.30;5.37;;;30.40;6.40;;;;;;5027208;27;20463;-69
2022/08/25 11:59:53;;;;;;;7.00;4.63;;;30.40;6.60;;;;;;5021769;28;20977;-70
2022/08/25 12:02:41;;;;;;;6.30;4.67;;;30.50;6.90;;;;;;5015470;27;20515;-70
2022/08/25 12:05:12;;;;;;;7.20;5.20;;;30.40;6.30;;;;;;5024469;27;20482;-69
2022/08/25 12:10:57;;;;;;;7.50;5.00;;;30.10;6.50;;;;;;5021007;28;20449;-70
2022/08/25 12:13:39;;;;;;;6.10;4.60;;;29.90;6.60;;;;;;5055840;27;20982;-70
2022/08/25 12:16:07;;;;;;;8.03;5.40;;;29.90;7.80;;;;;;5020414;28;20829;-69
2022/08/25 12:18:45;;;;;;;13.50;5.23;;;29.90;7.40;;;;;;5021407;28;20459;-70
2022/08/25 12:21:16;;;;;;;8.57;5.53;;;29.80;8.10;;;;;;5053082;27;20455;-70
2022/08/25 12:24:04;;;;;;;6.50;4.37;;;29.80;8.00;;;;;;5013257;28;20479;-70
2022/08/25 12:26:39;;;;;;;6.90;5.20;;;29.80;8.20;;;;;;5018476;28;20459;-70
2022/08/25 12:29:11;;;;;;;7.63;4.53;;;29.80;8.10;;;;;;5019250;28;20875;-71
2022/08/25 12:32:00;;;;;;;6.60;5.20;;;29.70;8.00;;;;;;5014838;28;20476;-70
2022/08/25 12:34:46;;;;;;;5.93;4.20;;;29.70;8.60;;;;;;5019440;28;20483;-70
2022/08/25 12:37:15;;;;;;;6.50;4.77;;;29.80;8.60;;;;;;5015954;28;20546;-70
2022/08/25 12:39:58;;;;;;;6.70;5.00;;;29.80;9.10;;;;;;5017961;28;20462;-70
2022/08/25 12:42:31;;;;;;;6.97;4.50;;;29.80;8.10;;;;;;5022814;28;20991;-70
2022/08/25 12:45:36;;;;;;;7.23;4.60;;;29.80;8.50;;;;;;5025507;28;20558;-70
2022/08/25 12:48:42;;;;;;;5.90;4.10;;;29.80;8.00;;;;;;5021181;28;20463;-70
2022/08/25 12:51:17;;;;;;;7.17;4.30;;;29.80;8.70;;;;;;5020817;28;21019;-70
2022/08/25 12:53:48;;;;;;;6.87;4.50;;;29.60;8.10;;;;;;5018775;28;20558;-71
2022/08/25 12:56:27;;;;;;;5.70;4.03;;;29.60;9.30;;;;;;5018065;28;20455;-70
2022/08/25 12:59:11;;;;;;;5.80;3.60;;;29.60;8.40;;;;;;5023378;28;20495;-70
2022/08/25 13:02:11;;;;;;;5.37;3.87;;;29.60;7.50;;;;;;5027200;27;20557;-71
2022/08/25 13:05:04;;;;;;;6.10;3.80;;;29.60;7.60;;;;;;5030200;27;20482;-71
2022/08/25 13:07:51;;;;;;;7.40;4.83;;;29.50;8.60;;;;;;5018948;28;21302;-71
2022/08/25 13:10:29;;;;;;;6.73;3.90;;;29.50;8.70;;;;;;5022027;28;20481;-71
2022/08/25 13:13:04;;;;;;;6.90;4.50;;;29.50;8.90;;;;;;5058130;27;20482;-71
2022/08/25 13:15:38;;;;;;;5.37;3.60;;;29.50;8.70;;;;;;5031835;27;20462;-71
2022/08/25 13:18:20;;;;;;;5.83;3.47;;;29.60;8.60;;;;;;5020538;28;20455;-71